Time;durP1;ratioP1;P1;durP2;ratioP2;P2;SDS_P1;SDS_P2;PMS_P1;PMS_P2;Temp;Humidity;BMP_temperature;BMP_pressure;BME280_temperature;BME280_humidity;BME280_pressure;Samples;Min_cycle;Max_cycle;Signal;HPM_P1;HPM_P2
2021/08/16 00:05:31;;;;;;;;;29.00;25.00;;;;;;;;6490913;31;9035;-64
2021/08/16 00:11:35;;;;;;;;;29.67;28.33;;;;;;;;6490825;39;8965;-64
2021/08/16 00:17:37;;;;;;;;;32.00;28.33;;;;;;;;6490296;46;8992;-64
2021/08/16 00:23:40;;;;;;;;;30.50;27.50;;;;;;;;6489305;46;9079;-63
2021/08/16 00:29:42;;;;;;;;;25.00;22.33;;;;;;;;6489463;46;9052;-65
2021/08/16 00:35:44;;;;;;;;;26.00;24.67;;;;;;;;6490208;46;8950;-63
2021/08/16 00:41:48;;;;;;;;;26.67;26.00;;;;;;;;6490126;39;9615;-64
2021/08/16 00:47:50;;;;;;;;;31.67;30.00;;;;;;;;6489186;46;9181;-63
2021/08/16 00:53:54;;;;;;;;;30.00;28.00;;;;;;;;6489080;39;9718;-65
2021/08/16 01:00:00;;;;;;;;;25.00;22.67;;;;;;;;6490177;31;9600;-64
2021/08/16 01:06:02;;;;;;;;;33.00;31.33;;;;;;;;6489805;39;9112;-64
2021/08/16 01:12:06;;;;;;;;;34.67;31.00;;;;;;;;6489988;46;8941;-62
2021/08/16 01:18:08;;;;;;;;;32.00;30.67;;;;;;;;6490728;39;9074;-63
2021/08/16 01:24:10;;;;;;;;;29.67;29.00;;;;;;;;6490126;39;8963;-64
2021/08/16 01:30:16;;;;;;;;;29.00;27.33;;;;;;;;6489892;31;9056;-62
2021/08/16 01:36:18;;;;;;;;;29.67;27.00;;;;;;;;6489326;39;9145;-63
2021/08/16 01:42:20;;;;;;;;;29.67;29.67;;;;;;;;6489808;39;8973;-64
2021/08/16 01:48:22;;;;;;;;;25.33;23.00;;;;;;;;6489617;39;9005;-64
2021/08/16 01:54:25;;;;;;;;;31.00;29.00;;;;;;;;6490605;39;8969;-64
2021/08/16 02:00:29;;;;;;;;;31.00;26.00;;;;;;;;6489772;46;8949;-64
2021/08/16 02:06:32;;;;;;;;;25.33;25.33;;;;;;;;6490088;31;8973;-63
2021/08/16 02:12:34;;;;;;;;;26.67;24.00;;;;;;;;6489030;39;8957;-63
2021/08/16 02:18:37;;;;;;;;;31.33;31.33;;;;;;;;6488424;46;9011;-62
2021/08/16 02:24:39;;;;;;;;;27.33;24.33;;;;;;;;6489280;46;8971;-63
2021/08/16 02:30:41;;;;;;;;;28.00;25.33;;;;;;;;6488352;39;8961;-64
2021/08/16 02:36:43;;;;;;;;;31.33;28.33;;;;;;;;6488795;39;8962;-63
2021/08/16 02:42:45;;;;;;;;;27.67;26.33;;;;;;;;6488466;46;9078;-64
2021/08/16 02:48:48;;;;;;;;;23.00;22.67;;;;;;;;6489658;39;9141;-64
2021/08/16 02:54:50;;;;;;;;;24.67;22.67;;;;;;;;6488633;47;8988;-64
2021/08/16 03:00:52;;;;;;;;;26.67;24.67;;;;;;;;6489113;39;9075;-64
2021/08/16 03:06:54;;;;;;;;;30.00;28.33;;;;;;;;6488233;47;9005;-66
2021/08/16 03:13:15;;;;;;;;;19.00;19.00;;;;;;;;5297682;36;10008992;-65
2021/08/16 03:19:34;;;;;;;;;29.50;29.00;;;;;;;;45;552;10010001;-63
2021/08/16 03:25:36;;;;;;;;;34.33;30.67;;;;;;;;5227907;31;10001285;-62
2021/08/16 03:31:38;;;;;;;;;27.00;24.33;;;;;;;;6489942;39;8947;-64
2021/08/16 03:37:42;;;;;;;;;30.33;27.67;;;;;;;;6490461;46;9063;-64
2021/08/16 03:43:44;;;;;;;;;30.67;28.33;;;;;;;;6490505;39;8951;-64
2021/08/16 03:49:46;;;;;;;;;34.00;32.33;;;;;;;;6490412;39;8979;-64
2021/08/16 03:55:49;;;;;;;;;26.00;24.33;;;;;;;;6489732;39;9014;-63
2021/08/16 04:01:51;;;;;;;;;31.00;26.00;;;;;;;;6475100;46;9008;-60
2021/08/16 04:07:53;;;;;;;;;26.33;26.00;;;;;;;;6489207;39;9000;-60
2021/08/16 04:13:56;;;;;;;;;28.00;27.67;;;;;;;;6492533;46;8970;-61
2021/08/16 04:19:59;;;;;;;;;24.67;23.33;;;;;;;;6493385;39;9008;-63
2021/08/16 04:26:01;;;;;;;;;27.67;27.67;;;;;;;;6492506;39;9391;-62
2021/08/16 04:32:03;;;;;;;;;27.00;26.00;;;;;;;;6493037;39;9642;-62
2021/08/16 04:38:05;;;;;;;;;28.33;28.33;;;;;;;;6492673;46;9035;-61
2021/08/16 04:44:08;;;;;;;;;24.50;24.50;;;;;;;;6492473;39;8955;-61
2021/08/16 04:50:11;;;;;;;;;25.33;24.00;;;;;;;;6493607;39;9040;-60
2021/08/16 04:56:13;;;;;;;;;23.67;23.67;;;;;;;;6493897;31;9054;-59
2021/08/16 05:02:15;;;;;;;;;24.00;24.00;;;;;;;;6492133;39;9027;-60
2021/08/16 05:08:18;;;;;;;;;26.67;24.67;;;;;;;;6538496;36;9007;-59
2021/08/16 05:14:20;;;;;;;;;27.67;27.00;;;;;;;;6489487;31;8961;-60
2021/08/16 05:20:23;;;;;;;;;30.00;26.33;;;;;;;;6492931;39;8931;-59
2021/08/16 05:26:25;;;;;;;;;33.00;29.67;;;;;;;;6490630;39;9730;-60
2021/08/16 05:32:27;;;;;;;;;23.33;21.67;;;;;;;;6491012;39;9088;-60
2021/08/16 05:38:30;;;;;;;;;23.75;23.75;;;;;;;;6492292;31;8981;-59
2021/08/16 05:44:33;;;;;;;;;27.25;24.75;;;;;;;;6491550;46;8943;-59
2021/08/16 05:50:36;;;;;;;;;21.75;20.25;;;;;;;;6492214;31;8829;-59
2021/08/16 05:56:39;;;;;;;;;22.25;21.00;;;;;;;;6490001;46;9069;-59
2021/08/16 06:02:42;;;;;;;;;22.25;19.00;;;;;;;;6490338;46;9071;-60
2021/08/16 06:08:45;;;;;;;;;17.00;15.00;;;;;;;;6489496;39;9001;-59
2021/08/16 06:14:47;;;;;;;;;19.25;17.50;;;;;;;;6487624;39;8995;-58
2021/08/16 06:20:50;;;;;;;;;21.50;21.50;;;;;;;;6489125;39;9619;-59
2021/08/16 06:26:53;;;;;;;;;19.00;19.00;;;;;;;;6488067;46;8987;-59
2021/08/16 06:32:55;;;;;;;;;21.75;20.75;;;;;;;;6489553;39;8995;-58
2021/08/16 06:38:57;;;;;;;;;25.50;23.75;;;;;;;;6490052;39;9105;-58
2021/08/16 06:45:00;;;;;;;;;23.25;22.25;;;;;;;;6488825;39;9047;-59
2021/08/16 06:51:03;;;;;;;;;25.75;25.75;;;;;;;;6486117;39;8945;-60
2021/08/16 06:57:05;;;;;;;;;22.75;21.00;;;;;;;;6483327;39;8986;-59
2021/08/16 07:03:09;;;;;;;;;23.50;23.25;;;;;;;;6484029;46;8999;-59
2021/08/16 07:09:12;;;;;;;;;26.50;22.50;;;;;;;;6490788;46;9007;-59
2021/08/16 07:15:15;;;;;;;;;24.75;23.50;;;;;;;;6492387;46;9015;-58
2021/08/16 07:21:17;;;;;;;;;20.50;20.50;;;;;;;;6490559;46;9148;-60
2021/08/16 07:27:22;;;;;;;;;26.25;22.25;;;;;;;;6490734;39;9058;-59
2021/08/16 07:33:24;;;;;;;;;21.25;18.00;;;;;;;;6490042;39;9116;-59
2021/08/16 07:39:26;;;;;;;;;21.25;19.00;;;;;;;;6491205;39;8998;-59
2021/08/16 07:45:29;;;;;;;;;18.25;16.00;;;;;;;;6492097;39;9115;-59
2021/08/16 07:51:31;;;;;;;;;23.50;21.00;;;;;;;;6492547;39;8955;-59
2021/08/16 07:57:33;;;;;;;;;18.75;17.25;;;;;;;;6491911;31;8989;-59
2021/08/16 08:03:36;;;;;;;;;19.00;16.75;;;;;;;;6490990;39;9084;-59
2021/08/16 08:09:38;;;;;;;;;19.25;17.75;;;;;;;;6487895;39;9698;-59
2021/08/16 08:15:41;;;;;;;;;16.75;15.75;;;;;;;;6487316;31;9088;-60
2021/08/16 08:21:43;;;;;;;;;22.00;19.50;;;;;;;;6487768;39;9630;-58
2021/08/16 08:27:47;;;;;;;;;18.50;17.75;;;;;;;;6486768;31;9093;-60
2021/08/16 08:33:49;;;;;;;;;18.00;17.25;;;;;;;;6486644;39;9026;-59
2021/08/16 08:39:51;;;;;;;;;18.00;16.00;;;;;;;;6486904;39;8981;-59
2021/08/16 08:45:56;;;;;;;;;24.00;22.75;;;;;;;;6486675;31;9351;-60
2021/08/16 08:51:59;;;;;;;;;17.75;17.25;;;;;;;;6486890;31;9163;-58
2021/08/16 08:58:02;;;;;;;;;19.75;16.25;;;;;;;;6482324;39;8975;-60
2021/08/16 09:04:04;;;;;;;;;17.00;17.00;;;;;;;;6487353;31;9064;-58
2021/08/16 09:10:12;;;;;;;;;16.00;15.75;;;;;;;;6485241;46;9116;-57
2021/08/16 09:16:14;;;;;;;;;15.50;15.50;;;;;;;;6485340;39;8990;-59
2021/08/16 09:22:25;;;;;;;;;16.25;16.25;;;;;;;;6484529;31;9057;-59
2021/08/16 09:28:29;;;;;;;;;17.00;17.00;;;;;;;;6485148;31;9000;-60
2021/08/16 09:34:41;;;;;;;;;13.75;13.75;;;;;;;;6485694;39;9692;-58
2021/08/16 09:40:44;;;;;;;;;17.50;15.00;;;;;;;;6484727;39;9755;-59
2021/08/16 09:46:58;;;;;;;;;16.50;15.50;;;;;;;;6485248;39;9103;-60
2021/08/16 09:53:05;;;;;;;;;13.75;13.75;;;;;;;;6483977;39;8986;-58
2021/08/16 09:59:08;;;;;;;;;17.00;17.00;;;;;;;;6484638;31;9197;-59
2021/08/16 10:05:11;;;;;;;;;15.50;15.50;;;;;;;;6484463;39;9088;-60
2021/08/16 10:11:18;;;;;;;;;20.75;17.75;;;;;;;;6486153;39;9641;-62
2021/08/16 10:17:41;;;;;;;;;15.00;15.00;;;;;;;;6486084;46;8969;-59
2021/08/16 10:23:52;;;;;;;;;16.50;16.50;;;;;;;;6479320;31;9038;-59
2021/08/16 10:30:05;;;;;;;;;17.75;17.25;;;;;;;;6479673;39;9007;-59
2021/08/16 10:36:21;;;;;;;;;22.00;17.75;;;;;;;;6481576;46;8993;-58
2021/08/16 10:42:33;;;;;;;;;15.50;15.25;;;;;;;;6483294;39;9018;-57
2021/08/16 10:48:35;;;;;;;;;19.75;17.00;;;;;;;;6485245;31;9049;-58
2021/08/16 10:54:37;;;;;;;;;15.75;15.75;;;;;;;;6485218;39;8979;-58
2021/08/16 11:00:41;;;;;;;;;18.75;18.75;;;;;;;;6304816;47;10001124;-60
2021/08/16 11:07:00;;;;;;;;;20.00;18.00;;;;;;;;6484587;39;9750;-59
2021/08/16 11:13:09;;;;;;;;;16.25;16.25;;;;;;;;6482585;47;9071;-59
2021/08/16 11:19:11;;;;;;;;;21.00;19.75;;;;;;;;6485876;39;9025;-59
2021/08/16 11:25:14;;;;;;;;;16.75;16.75;;;;;;;;6485939;39;9641;-59
2021/08/16 11:31:16;;;;;;;;;15.25;15.25;;;;;;;;6486201;47;9070;-59
2021/08/16 11:37:19;;;;;;;;;17.50;17.50;;;;;;;;6488539;39;9040;-58
2021/08/16 11:43:25;;;;;;;;;20.75;17.25;;;;;;;;6487628;39;8967;-59
2021/08/16 11:49:34;;;;;;;;;21.00;19.00;;;;;;;;6488722;39;9658;-58
2021/08/16 11:55:37;;;;;;;;;17.75;17.75;;;;;;;;6488997;39;9004;-61
2021/08/16 12:02:01;;;;;;;;;16.00;16.00;;;;;;;;6489476;39;9708;-61
2021/08/16 12:08:04;;;;;;;;;13.75;13.25;;;;;;;;6490149;39;9717;-60
2021/08/16 12:14:10;;;;;;;;;18.50;18.50;;;;;;;;6489350;46;9046;-62
2021/08/16 12:20:15;;;;;;;;;17.75;17.75;;;;;;;;6488566;39;9094;-61
2021/08/16 12:26:37;;;;;;;;;17.75;17.00;;;;;;;;6485934;39;9655;-59
2021/08/16 12:32:49;;;;;;;;;19.25;18.75;;;;;;;;6485726;39;9040;-59
2021/08/16 12:39:03;;;;;;;;;16.50;15.75;;;;;;;;6489623;39;9064;-58
2021/08/16 12:45:34;;;;;;;;;16.75;16.75;;;;;;;;6487843;46;8915;-59
2021/08/16 12:51:45;;;;;;;;;16.25;16.25;;;;;;;;6489469;46;9082;-59
2021/08/16 12:57:56;;;;;;;;;17.50;17.25;;;;;;;;6487808;46;9027;-59
2021/08/16 13:04:07;;;;;;;;;18.25;17.50;;;;;;;;6483120;31;9594;-59
2021/08/16 13:10:18;;;;;;;;;19.50;17.00;;;;;;;;6485422;31;8944;-60
2021/08/16 13:16:38;;;;;;;;;17.33;17.33;;;;;;;;6486539;39;8895;-59
2021/08/16 13:22:49;;;;;;;;;19.25;17.25;;;;;;;;6489018;39;9010;-60
2021/08/16 13:29:00;;;;;;;;;18.00;18.00;;;;;;;;6489819;31;9083;-60
2021/08/16 13:35:11;;;;;;;;;16.00;16.00;;;;;;;;6488968;39;9486;-59
2021/08/16 13:41:22;;;;;;;;;13.25;13.25;;;;;;;;6487121;39;9559;-60
2021/08/16 13:47:33;;;;;;;;;17.50;16.50;;;;;;;;6485337;46;8903;-60
2021/08/16 13:53:43;;;;;;;;;19.00;17.75;;;;;;;;6488168;31;8870;-58
2021/08/16 13:59:54;;;;;;;;;22.00;22.00;;;;;;;;6489433;31;8983;-58
2021/08/16 14:06:05;;;;;;;;;16.75;16.75;;;;;;;;6490151;31;8960;-62
2021/08/16 14:12:16;;;;;;;;;21.25;21.25;;;;;;;;6488787;39;8937;-63
2021/08/16 14:18:27;;;;;;;;;21.25;20.25;;;;;;;;6489275;39;8907;-63
2021/08/16 14:24:38;;;;;;;;;21.75;21.00;;;;;;;;6489733;31;8977;-62
2021/08/16 14:30:48;;;;;;;;;21.25;20.50;;;;;;;;6490052;39;9004;-62
2021/08/16 14:36:59;;;;;;;;;20.75;20.75;;;;;;;;6490160;39;9561;-62
2021/08/16 14:43:10;;;;;;;;;18.50;18.00;;;;;;;;6489497;46;8868;-61
2021/08/16 14:49:21;;;;;;;;;18.00;17.00;;;;;;;;6489877;39;9526;-62
2021/08/16 14:55:32;;;;;;;;;22.50;22.50;;;;;;;;6490107;39;8983;-63
2021/08/16 15:01:42;;;;;;;;;16.25;16.25;;;;;;;;6489435;46;8914;-62
2021/08/16 15:07:57;;;;;;;;;17.25;17.25;;;;;;;;6490065;39;9604;-63
2021/08/16 15:14:09;;;;;;;;;19.25;18.75;;;;;;;;6489785;31;8996;-62
2021/08/16 15:20:20;;;;;;;;;17.00;17.00;;;;;;;;6489573;39;9693;-62
2021/08/16 15:26:30;;;;;;;;;23.50;19.25;;;;;;;;6489797;46;8921;-62
2021/08/16 15:32:41;;;;;;;;;19.50;19.50;;;;;;;;6491926;39;8910;-62
2021/08/16 15:38:52;;;;;;;;;18.25;17.00;;;;;;;;6492073;39;8869;-62
2021/08/16 15:45:03;;;;;;;;;22.00;21.50;;;;;;;;6491693;39;8883;-64
2021/08/16 15:51:17;;;;;;;;;18.25;18.25;;;;;;;;6491015;46;8881;-62
2021/08/16 15:57:29;;;;;;;;;51.00;40.00;;;;;;;;6491209;46;8942;-62
2021/08/16 16:03:40;;;;;;;;;35.25;33.75;;;;;;;;6491094;39;9011;-62
2021/08/16 16:09:51;;;;;;;;;17.75;17.25;;;;;;;;6491488;39;9022;-62
2021/08/16 16:16:03;;;;;;;;;19.00;16.25;;;;;;;;6491078;46;9008;-61
2021/08/16 16:22:14;;;;;;;;;17.75;16.25;;;;;;;;6490538;31;8916;-62
2021/08/16 16:28:37;;;;;;;;;22.00;20.00;;;;;;;;6491705;39;9774;-61
2021/08/16 16:34:49;;;;;;;;;21.25;20.75;;;;;;;;6491197;39;8906;-62
2021/08/16 16:41:02;;;;;;;;;19.00;19.00;;;;;;;;6491153;39;8882;-62
2021/08/16 16:47:13;;;;;;;;;23.25;21.50;;;;;;;;6490884;46;8905;-62
2021/08/16 16:53:25;;;;;;;;;24.50;21.50;;;;;;;;6490639;39;8924;-62
2021/08/16 16:59:37;;;;;;;;;20.50;20.00;;;;;;;;6491785;31;8884;-62
2021/08/16 17:05:47;;;;;;;;;23.50;22.50;;;;;;;;6491351;39;8917;-62
2021/08/16 17:11:58;;;;;;;;;21.00;19.25;;;;;;;;6490862;39;8946;-61
2021/08/16 17:18:09;;;;;;;;;20.00;19.25;;;;;;;;6490365;46;8870;-62
2021/08/16 17:24:20;;;;;;;;;21.50;20.50;;;;;;;;6490563;46;8943;-63
2021/08/16 17:30:33;;;;;;;;;21.00;21.00;;;;;;;;6491187;39;8943;-60
2021/08/16 17:36:44;;;;;;;;;20.50;20.00;;;;;;;;6490038;39;8903;-62
2021/08/16 17:42:54;;;;;;;;;30.00;28.25;;;;;;;;6491137;31;8925;-62
2021/08/16 17:49:05;;;;;;;;;34.67;32.00;;;;;;;;6490971;31;9012;-62
2021/08/16 17:55:16;;;;;;;;;25.00;21.33;;;;;;;;6491221;39;8858;-61
2021/08/16 18:01:27;;;;;;;;;17.50;17.25;;;;;;;;6490117;46;8911;-62
2021/08/16 18:07:38;;;;;;;;;23.00;22.50;;;;;;;;6491687;39;8945;-62
2021/08/16 18:13:49;;;;;;;;;16.75;15.75;;;;;;;;6490715;31;8884;-63
2021/08/16 18:20:00;;;;;;;;;21.50;21.50;;;;;;;;6490874;39;8932;-62
2021/08/16 18:26:11;;;;;;;;;19.75;19.75;;;;;;;;6490019;39;8880;-61
2021/08/16 18:32:25;;;;;;;;;60.00;47.33;;;;;;;;6491050;39;9553;-61
2021/08/16 18:38:36;;;;;;;;;39.75;35.00;;;;;;;;6489949;31;9011;-61
2021/08/16 18:44:46;;;;;;;;;24.75;23.50;;;;;;;;6490372;31;8987;-62
2021/08/16 18:50:58;;;;;;;;;21.25;21.25;;;;;;;;6489573;31;8912;-61
2021/08/16 18:57:09;;;;;;;;;26.00;25.00;;;;;;;;6490056;39;8878;-62
2021/08/16 19:03:20;;;;;;;;;29.25;28.25;;;;;;;;6488968;47;8932;-63
2021/08/16 19:09:31;;;;;;;;;19.75;18.75;;;;;;;;6489478;39;8961;-61
2021/08/16 19:15:44;;;;;;;;;20.50;19.25;;;;;;;;6489237;31;8935;-61
2021/08/16 19:21:54;;;;;;;;;21.00;19.00;;;;;;;;6488707;39;8928;-61
2021/08/16 19:28:05;;;;;;;;;17.75;17.75;;;;;;;;6488980;39;9009;-62
2021/08/16 19:34:16;;;;;;;;;20.33;19.33;;;;;;;;6489291;39;8933;-62
2021/08/16 19:40:27;;;;;;;;;22.00;20.75;;;;;;;;6488566;47;8998;-61
2021/08/16 19:46:40;;;;;;;;;20.25;17.75;;;;;;;;6488787;47;8882;-61
2021/08/16 19:52:50;;;;;;;;;14.50;14.50;;;;;;;;6488162;31;9087;-62
2021/08/16 19:59:01;;;;;;;;;19.75;17.50;;;;;;;;6488405;39;8890;-61
2021/08/16 20:05:12;;;;;;;;;20.50;17.75;;;;;;;;6488557;31;9002;-61
2021/08/16 20:11:23;;;;;;;;;22.50;21.75;;;;;;;;6489697;39;8952;-61
2021/08/16 20:17:33;;;;;;;;;15.75;15.75;;;;;;;;6490856;39;8999;-60
2021/08/16 20:23:36;;;;;;;;;18.75;18.25;;;;;;;;6490217;39;8977;-63
2021/08/16 20:29:41;;;;;;;;;21.75;19.00;;;;;;;;6489786;46;8976;-62
2021/08/16 20:35:44;;;;;;;;;16.50;15.25;;;;;;;;6489920;46;8958;-63
2021/08/16 20:41:46;;;;;;;;;16.00;15.25;;;;;;;;6490813;39;9064;-62
2021/08/16 20:47:48;;;;;;;;;12.75;12.75;;;;;;;;6490532;39;8973;-62
2021/08/16 20:53:51;;;;;;;;;17.50;15.25;;;;;;;;6490444;31;9014;-61
2021/08/16 20:59:54;;;;;;;;;18.00;18.00;;;;;;;;6490650;39;9677;-61
2021/08/16 21:05:59;;;;;;;;;14.00;14.00;;;;;;;;6491040;39;8976;-62
2021/08/16 21:12:02;;;;;;;;;16.00;15.00;;;;;;;;6490104;39;9024;-64
2021/08/16 21:18:04;;;;;;;;;16.25;15.00;;;;;;;;6489869;46;8979;-61
2021/08/16 21:24:08;;;;;;;;;14.50;14.50;;;;;;;;6489688;46;8942;-60
2021/08/16 21:30:10;;;;;;;;;17.50;16.00;;;;;;;;6490049;31;8960;-62
2021/08/16 21:36:13;;;;;;;;;13.25;13.00;;;;;;;;6489812;39;8954;-61
2021/08/16 21:42:15;;;;;;;;;13.75;12.50;;;;;;;;6490317;39;8980;-61
2021/08/16 21:48:17;;;;;;;;;11.25;11.25;;;;;;;;6489792;39;8981;-62
2021/08/16 21:54:20;;;;;;;;;16.25;15.00;;;;;;;;6490265;39;9016;-62
2021/08/16 22:00:22;;;;;;;;;13.50;13.50;;;;;;;;6490359;39;9475;-62
2021/08/16 22:06:24;;;;;;;;;10.75;10.50;;;;;;;;6489529;46;8967;-62
2021/08/16 22:12:27;;;;;;;;;13.75;13.00;;;;;;;;6490405;39;8954;-61
2021/08/16 22:18:29;;;;;;;;;12.75;12.50;;;;;;;;6489569;39;8966;-62
2021/08/16 22:24:34;;;;;;;;;12.75;12.75;;;;;;;;6489261;39;8993;-61
2021/08/16 22:30:37;;;;;;;;;11.75;11.75;;;;;;;;6489900;39;8996;-62
2021/08/16 22:36:39;;;;;;;;;12.00;9.50;;;;;;;;6489585;39;9147;-61
2021/08/16 22:42:42;;;;;;;;;10.00;10.00;;;;;;;;6489343;39;8979;-62
2021/08/16 22:48:44;;;;;;;;;14.75;13.25;;;;;;;;6489066;46;8986;-62
2021/08/16 22:54:46;;;;;;;;;11.50;11.25;;;;;;;;6489626;39;9051;-61
2021/08/16 23:00:48;;;;;;;;;12.33;12.33;;;;;;;;6488382;46;9076;-61
2021/08/16 23:06:52;;;;;;;;;11.00;10.25;;;;;;;;6489391;39;9664;-62
2021/08/16 23:12:56;;;;;;;;;10.50;10.50;;;;;;;;6526713;36;9518;-62
2021/08/16 23:18:58;;;;;;;;;11.75;9.75;;;;;;;;6489211;39;8944;-62
2021/08/16 23:25:00;;;;;;;;;7.50;7.50;;;;;;;;6489272;39;8965;-61
2021/08/16 23:31:02;;;;;;;;;13.25;13.25;;;;;;;;6488533;31;9084;-61
2021/08/16 23:37:05;;;;;;;;;11.00;10.00;;;;;;;;6489423;31;9158;-61
2021/08/16 23:43:07;;;;;;;;;14.50;12.75;;;;;;;;6488973;39;8971;-62
2021/08/16 23:49:09;;;;;;;;;15.00;12.00;;;;;;;;6489474;39;9073;-63
2021/08/16 23:55:16;;;;;;;;;13.25;11.50;;;;;;;;6490489;31;8972;-61
